National Weather Service Raw Text Product

Displaying AFOS PIL: TAFFOD Received: 2017-12-07 05:29 UTC


099 
FTUS43 KDMX 070529
TAFFOD
TAF
KFOD 070529Z 0706/0806 32012G19KT P6SM OVC050
     FM070700 32011KT P6SM BKN050
     FM071300 29009G15KT P6SM FEW250
     FM072300 25007KT P6SM SCT100=